Coastal Inspiration — CFN4970 — position and weather

sailwx.info

Track history (hours):
 
Tides and Currents Weather Stations Pressure Air Temp Water Temp Dewpoint Dewpoint Depression Visibility Wind Speed Wind Dir Waves Ship Positions

Coastal Inspiration

Last reported at 2017-Aug-19 05:30 UTC. Time now 2017-Aug-19 05:31 UTC.
Position N 49°00' W 123°08'.

Length 160 m.

Type: Passenger vessel. MMSI: 316011408.

Date/timePositionNaut miles runAvg speedWind from/ knotsBaromVisibWave heightAir tempDewpointWater temp
2017-Aug-19 05:30N 49°00' W 123°08'1 2.1
2017-Aug-19 05:00N 48°60' W 123°09'1020.3
2017-Aug-19 04:30N 49°03' W 123°24'1121.3
2017-Aug-19 04:00N 49°10' W 123°37'1020.3
2017-Aug-19 03:30N 49°12' W 123°52'3 5.7
2017-Aug-19 03:00N 49°10' W 123°53'2 3.6
2017-Aug-19 02:30N 49°12' W 123°53'918.1
2017-Aug-19 02:00N 49°11' W 123°39'1121.2
2017-Aug-19 01:30N 49°06' W 123°25'1021.0
2017-Aug-19 01:00N 48°60' W 123°12'3 5.6
2017-Aug-19 00:30N 49°00' W 123°08'2 3.8
2017-Aug-19 00:00N 48°60' W 123°11'1020.1
2017-Aug-18 23:30N 49°04' W 123°25'1020.4
2017-Aug-18 23:00N 49°09' W 123°38'1019.5
2017-Aug-18 22:30N 49°13' W 123°52'3 5.8
2017-Aug-18 22:00N 49°10' W 123°53'2 4.8
2017-Aug-18 21:31N 49°12' W 123°53'1020.0
2017-Aug-18 21:00N 49°10' W 123°37'1021.6
2017-Aug-18 20:30N 49°05' W 123°23'1121.9
2017-Aug-18 20:01N 49°00' W 123°09'1 1.3
2017-Aug-18 19:30N 49°00' W 123°08'3 5.4
2017-Aug-18 19:00N 49°00' W 123°12'918.9
2017-Aug-18 18:30N 49°04' W 123°25'1019.0
2017-Aug-18 18:00N 49°09' W 123°37'1019.9
2017-Aug-18 17:31N 49°13' W 123°51'4 7.3
2017-Aug-18 17:00N 49°10' W 123°53'2 3.6
2017-Aug-18 16:30N 49°12' W 123°53'917.6
2017-Aug-18 16:00N 49°11' W 123°40'1020.9
2017-Aug-18 15:31N 49°06' W 123°26'1020.9
2017-Aug-18 15:01N 49°00' W 123°12'3 5.8
2017-Aug-18 14:30N 49°00' W 123°08'1413.7
2017-Aug-18 13:31N 49°05' W 123°28'1020.4
2017-Aug-18 13:00N 49°11' W 123°41'816.8
2017-Aug-18 12:30N 49°11' W 123°53'1 1.7
2017-Aug-18 11:59N 49°10' W 123°53'0 0.0
2017-Aug-18 11:29N 49°10' W 123°53'0 0.0
2017-Aug-18 10:59N 49°10' W 123°53'0 0.0
2017-Aug-18 10:29N 49°10' W 123°53'0 0.0
2017-Aug-18 09:59N 49°10' W 123°53'0 0.0
2017-Aug-18 09:29N 49°10' W 123°53'0 0.0
2017-Aug-18 08:59N 49°10' W 123°53'0 0.0
2017-Aug-18 08:29N 49°10' W 123°53'0 0.0
2017-Aug-18 07:56N 49°10' W 123°53'2 5.4
2017-Aug-18 07:30N 49°12' W 123°53'1019.0
2017-Aug-18 07:00N 49°11' W 123°38'1121.6
2017-Aug-18 06:30N 49°05' W 123°24'1121.7
2017-Aug-18 06:00N 49°00' W 123°10'1 2.6
2017-Aug-18 05:31N 49°00' W 123°08'611.0
2017-Aug-18 05:00N 49°01' W 123°16'1020.0
2017-Aug-18 04:30N 49°06' W 123°29'1020.4
2017-Aug-18 04:00N 49°11' W 123°42'714.8
2017-Aug-18 03:30N 49°10' W 123°53'0 0.2
2017-Aug-18 03:00N 49°10' W 123°53'4 8.3
2017-Aug-18 02:30N 49°13' W 123°50'1020.2
2017-Aug-18 01:59N 49°09' W 123°35'1021.1
2017-Aug-18 01:30N 49°04' W 123°21'1019.2
2017-Aug-18 01:00N 49°00' W 123°08'0 0.1
2017-Aug-18 00:25N 49°00' W 123°08'1 2.6
2017-Aug-18 00:00N 49°00' W 123°09'1020.1
2017-Aug-17 23:31N 49°03' W 123°24'1020.2
2017-Aug-17 23:01N 49°09' W 123°36'1019.8
2017-Aug-17 22:30N 49°13' W 123°50'4 7.8
2017-Aug-17 22:00N 49°10' W 123°53'1 1.2
2017-Aug-17 21:30N 49°10' W 123°53'816.1
2017-Aug-17 21:00N 49°12' W 123°41'1020.6
2017-Aug-17 20:30N 49°07' W 123°27'1121.2
2017-Aug-17 20:00N 49°01' W 123°14'4 7.9
2017-Aug-17 19:30N 49°00' W 123°08'2 3.4
2017-Aug-17 19:00N 49°00' W 123°10'1019.6
2017-Aug-17 18:31N 49°04' W 123°24'1020.3
2017-Aug-17 18:00N 49°10' W 123°37'1019.7
2017-Aug-17 17:30N 49°12' W 123°52'3 5.9
2017-Aug-17 17:00N 49°10' W 123°53'1 2.3
2017-Aug-17 16:30N 49°11' W 123°53'817.1
2017-Aug-17 16:00N 49°12' W 123°40'1020.0
2017-Aug-17 15:30N 49°07' W 123°27'1020.3
2017-Aug-17 15:00N 49°01' W 123°14'4 8.6
2017-Aug-17 14:30N 49°00' W 123°08'1 2.4
2017-Aug-17 14:00N 48°60' W 123°09'1019.9
2017-Aug-17 13:30N 49°03' W 123°24'1020.7
2017-Aug-17 13:00N 49°09' W 123°36'1020.6
2017-Aug-17 12:30N 49°13' W 123°51'4 7.3
2017-Aug-17 12:00N 49°10' W 123°53'0 0.0
2017-Aug-17 11:30N 49°10' W 123°53'0 0.0
2017-Aug-17 10:57N 49°10' W 123°53'0 0.0
2017-Aug-17 10:30N 49°10' W 123°53'0 0.0
2017-Aug-17 10:00N 49°10' W 123°53'0 0.0
2017-Aug-17 09:24N 49°10' W 123°53'0 0.0
2017-Aug-17 08:57N 49°10' W 123°53'0 0.0
2017-Aug-17 08:30N 49°10' W 123°53'0 0.0
2017-Aug-17 08:00N 49°10' W 123°53'0 0.2
2017-Aug-17 07:30N 49°10' W 123°53'815.2
2017-Aug-17 07:00N 49°13' W 123°42'1020.9
2017-Aug-17 06:30N 49°07' W 123°29'1121.6
2017-Aug-17 06:00N 49°02' W 123°15'5 9.3
2017-Aug-17 05:31N 49°00' W 123°08'1 2.9
2017-Aug-17 05:00N 49°00' W 123°10'1019.6
2017-Aug-17 04:30N 49°03' W 123°24'1020.4
2017-Aug-17 04:01N 49°10' W 123°36'1020.0
2017-Aug-17 03:31N 49°13' W 123°51'4 7.5
2017-Aug-17 03:00N 49°10' W 123°53'0 0.9
2017-Aug-17 02:30N 49°10' W 123°53'816.3
2017-Aug-17 02:00N 49°11' W 123°41'1021.1
2017-Aug-17 01:30N 49°07' W 123°27'1121.0
2017-Aug-17 01:00N 49°01' W 123°13'3 6.9
2017-Aug-17 00:30N 49°00' W 123°08'2 4.8
2017-Aug-17 00:00N 49°00' W 123°12'1019.7
2017-Aug-16 23:30N 49°04' W 123°25'1020.2
2017-Aug-16 23:00N 49°10' W 123°38'1019.2
2017-Aug-16 22:30N 49°12' W 123°52'3 5.3
2017-Aug-16 22:00N 49°10' W 123°53'1 2.2
2017-Aug-16 21:30N 49°11' W 123°53'816.9
2017-Aug-16 21:01N 49°11' W 123°41'1120.9
2017-Aug-16 20:30N 49°07' W 123°26'1021.2
2017-Aug-16 20:00N 49°01' W 123°13'3 6.6
2017-Aug-16 19:30N 49°00' W 123°08'2 3.9
2017-Aug-16 19:00N 49°00' W 123°11'1019.1
2017-Aug-16 18:30N 49°04' W 123°24'1019.7
2017-Aug-16 18:00N 49°09' W 123°36'1019.6
2017-Aug-16 17:30N 49°13' W 123°50'4 7.5
2017-Aug-16 17:00N 49°10' W 123°53'2 3.5
2017-Aug-16 16:31N 49°12' W 123°54'1018.6
2017-Aug-16 16:00N 49°11' W 123°39'1020.9
2017-Aug-16 15:30N 49°06' W 123°25'1121.1
2017-Aug-16 15:00N 49°00' W 123°11'2 4.6
2017-Aug-16 14:30N 49°00' W 123°08'3 7.0
2017-Aug-16 14:00N 49°00' W 123°13'918.6
2017-Aug-16 13:31N 49°04' W 123°26'918.9
2017-Aug-16 13:01N 49°10' W 123°38'918.4
2017-Aug-16 12:30N 49°13' W 123°51'4 5.8
2017-Aug-16 11:52N 49°10' W 123°53'0 0.0
2017-Aug-16 11:28N 49°10' W 123°53'0 0.0
2017-Aug-16 10:58N 49°10' W 123°53'0 0.0
2017-Aug-16 08:49N 49°10' W 123°53'0 0.0
2017-Aug-16 08:28N 49°10' W 123°53'0 0.0
2017-Aug-16 07:55N 49°10' W 123°53'3 6.5
2017-Aug-16 07:30N 49°12' W 123°53'918.6
2017-Aug-16 07:00N 49°10' W 123°39'1021.0
2017-Aug-16 06:30N 49°06' W 123°24'1020.8
2017-Aug-16 06:00N 49°00' W 123°11'2 3.6
2017-Aug-16 05:30N 49°00' W 123°08'611.0
2017-Aug-16 05:00N 49°01' W 123°16'1020.5
2017-Aug-16 04:30N 49°06' W 123°30'1021.0
2017-Aug-16 04:01N 49°12' W 123°43'713.9
2017-Aug-16 03:31N 49°10' W 123°53'0 0.1
2017-Aug-16 03:00N 49°10' W 123°53'612.3
2017-Aug-16 02:30N 49°13' W 123°46'1020.7
2017-Aug-16 02:01N 49°08' W 123°32'1020.6
2017-Aug-16 01:30N 49°03' W 123°18'714.1
2017-Aug-16 01:00N 49°00' W 123°08'0 0.0
2017-Aug-16 00:30N 49°00' W 123°08'3 5.9
2017-Aug-16 00:00N 48°60' W 123°12'1121.1
2017-Aug-15 23:30N 49°05' W 123°27'1121.2
2017-Aug-15 23:00N 49°11' W 123°40'917.6
2017-Aug-15 22:30N 49°11' W 123°53'1 1.9
2017-Aug-15 22:00N 49°10' W 123°53'3 5.1
2017-Aug-15 21:31N 49°12' W 123°53'1019.0
2017-Aug-15 21:01N 49°11' W 123°38'1020.5
2017-Aug-15 20:31N 49°06' W 123°25'1020.5
2017-Aug-15 20:01N 49°00' W 123°11'2 4.4
2017-Aug-15 19:29N 49°00' W 123°08'3 6.0
2017-Aug-15 19:00N 49°00' W 123°12'919.0
2017-Aug-15 18:30N 49°04' W 123°25'1019.3
2017-Aug-15 18:00N 49°10' W 123°38'919.0
2017-Aug-15 17:30N 49°13' W 123°51'3 6.3
2017-Aug-15 17:01N 49°10' W 123°53'2 3.6
2017-Aug-15 16:30N 49°12' W 123°53'918.1
2017-Aug-15 16:00N 49°11' W 123°39'1020.6
2017-Aug-15 15:30N 49°06' W 123°26'1020.7
2017-Aug-15 15:00N 49°01' W 123°12'3 5.4
2017-Aug-15 14:30N 49°00' W 123°08'2 4.0
2017-Aug-15 14:00N 48°59' W 123°11'1020.0
2017-Aug-15 13:30N 49°04' W 123°25'1020.6
2017-Aug-15 13:00N 49°10' W 123°37'1020.4
2017-Aug-15 12:30N 49°12' W 123°52'3 5.5
2017-Aug-15 11:59N 49°10' W 123°53'0 0.0
2017-Aug-15 11:29N 49°10' W 123°53'0 0.0
2017-Aug-15 11:00N 49°10' W 123°53'0 0.0
2017-Aug-15 10:29N 49°10' W 123°53'0 0.0
2017-Aug-15 09:59N 49°10' W 123°53'0 0.0
2017-Aug-15 09:29N 49°10' W 123°53'0 0.0
2017-Aug-15 08:47N 49°10' W 123°53'0 0.0
2017-Aug-15 08:30N 49°10' W 123°53'0 0.0
2017-Aug-15 07:59N 49°10' W 123°53'2 3.3
2017-Aug-15 07:30N 49°11' W 123°53'917.7
2017-Aug-15 07:00N 49°11' W 123°40'1021.0
2017-Aug-15 06:30N 49°07' W 123°25'1020.3
2017-Aug-15 06:00N 49°01' W 123°13'3 6.2
2017-Aug-15 05:30N 49°00' W 123°08'3 5.7
2017-Aug-15 05:00N 49°00' W 123°12'1020.1
2017-Aug-15 04:31N 49°04' W 123°26'1020.5
2017-Aug-15 04:00N 49°10' W 123°39'918.6
2017-Aug-15 03:31N 49°12' W 123°53'2 4.1
2017-Aug-15 03:00N 49°10' W 123°53'1 2.5
2017-Aug-15 02:30N 49°11' W 123°53'816.6
2017-Aug-15 02:00N 49°11' W 123°41'1020.7
2017-Aug-15 01:30N 49°06' W 123°27'1020.6
2017-Aug-15 01:00N 49°01' W 123°13'4 7.0
2017-Aug-15 00:30N 49°00' W 123°08'1 2.1
2017-Aug-15 00:00N 49°00' W 123°09'1020.6
2017-Aug-14 23:30N 49°03' W 123°24'1121.4
2017-Aug-14 22:59N 49°10' W 123°38'1019.9
2017-Aug-14 22:30N 49°12' W 123°52'3 5.5
2017-Aug-14 22:00N 49°10' W 123°53'0 0.9
2017-Aug-14 21:30N 49°10' W 123°53'815.4
2017-Aug-14 21:00N 49°12' W 123°42'1020.4
2017-Aug-14 20:30N 49°07' W 123°28'1020.5
2017-Aug-14 20:00N 49°01' W 123°15'5 9.4
2017-Aug-14 19:30N 49°00' W 123°08'1 1.1
2017-Aug-14 19:00N 49°00' W 123°09'1020.0
2017-Aug-14 18:30N 49°02' W 123°24'1020.4
2017-Aug-14 18:00N 49°09' W 123°35'1020.0
2017-Aug-14 17:30N 49°13' W 123°49'4 8.4
2017-Aug-14 17:00N 49°10' W 123°53'1 1.9
2017-Aug-14 16:30N 49°11' W 123°53'816.4
2017-Aug-14 16:00N 49°11' W 123°41'1020.8
2017-Aug-14 15:31N 49°06' W 123°27'1020.7
2017-Aug-14 15:00N 49°01' W 123°14'4 7.7
2017-Aug-14 14:30N 49°00' W 123°08'1 2.7
2017-Aug-14 14:00N 48°59' W 123°09'1019.9
2017-Aug-14 13:30N 49°03' W 123°23'1121.0
2017-Aug-14 13:00N 49°09' W 123°36'1021.0
2017-Aug-14 12:30N 49°13' W 123°51'4 7.1
2017-Aug-14 11:58N 49°10' W 123°53'0 0.0
2017-Aug-14 11:25N 49°10' W 123°53'0 0.0
2017-Aug-14 10:55N 49°10' W 123°53'0 0.0
2017-Aug-14 10:28N 49°10' W 123°53'0 0.0
2017-Aug-14 09:55N 49°10' W 123°53'0 0.0
2017-Aug-14 09:28N 49°10' W 123°53'0 0.0
2017-Aug-14 08:58N 49°10' W 123°53'0 0.0
2017-Aug-14 08:25N 49°10' W 123°53'0 0.0
2017-Aug-14 07:55N 49°10' W 123°53'2 5.7
2017-Aug-14 07:30N 49°12' W 123°53'918.9
2017-Aug-14 07:00N 49°11' W 123°39'1020.8
2017-Aug-14 06:30N 49°06' W 123°25'1020.3
2017-Aug-14 06:00N 49°01' W 123°12'2 4.8
2017-Aug-14 05:30N 49°00' W 123°08'5 9.8
2017-Aug-14 05:00N 49°00' W 123°15'1020.8
2017-Aug-14 04:30N 49°06' W 123°29'1020.5
2017-Aug-14 04:00N 49°11' W 123°42'815.3
2017-Aug-14 03:31N 49°10' W 123°53'0 0.3
2017-Aug-14 03:01N 49°10' W 123°53'4 7.8
2017-Aug-14 02:30N 49°13' W 123°50'1020.6
2017-Aug-14 02:01N 49°10' W 123°35'1121.7
2017-Aug-14 01:30N 49°04' W 123°21'918.4
2017-Aug-14 01:00N 49°00' W 123°08'0 0.1
2017-Aug-14 00:30N 49°00' W 123°08'2 4.6
2017-Aug-14 00:01N 49°00' W 123°11'1020.0
2017-Aug-13 23:30N 49°04' W 123°25'1020.5
2017-Aug-13 23:00N 49°10' W 123°38'1019.7
2017-Aug-13 22:30N 49°12' W 123°53'2 4.8
2017-Aug-13 22:00N 49°10' W 123°53'1 1.6
2017-Aug-13 21:30N 49°11' W 123°53'815.9
2017-Aug-13 21:00N 49°11' W 123°41'1020.2
2017-Aug-13 20:31N 49°07' W 123°28'1020.0
2017-Aug-13 20:00N 49°01' W 123°15'5 9.5
2017-Aug-13 19:30N 49°00' W 123°08'0 0.2
2017-Aug-13 19:00N 49°00' W 123°08'918.1
2017-Aug-13 18:30N 49°02' W 123°22'1020.8
2017-Aug-13 18:00N 49°08' W 123°34'1020.7
2017-Aug-13 17:31N 49°13' W 123°48'5 9.6
2017-Aug-13 17:00N 49°10' W 123°53'0 0.9
2017-Aug-13 16:30N 49°10' W 123°53'815.5
2017-Aug-13 16:00N 49°11' W 123°42'1121.2
2017-Aug-13 15:30N 49°07' W 123°27'1121.3
2017-Aug-13 15:00N 49°01' W 123°14'4 7.5
2017-Aug-13 14:30N 49°00' W 123°08'3 6.6
2017-Aug-13 14:00N 49°00' W 123°13'918.5
2017-Aug-13 13:30N 49°04' W 123°26'918.2
2017-Aug-13 13:00N 49°10' W 123°37'918.7
2017-Aug-13 12:31N 49°13' W 123°50'4 7.1
2017-Aug-13 11:59N 49°10' W 123°53'0 0.0
2017-Aug-13 11:29N 49°10' W 123°53'0 0.0
2017-Aug-13 10:59N 49°10' W 123°53'0 0.0
2017-Aug-13 10:26N 49°10' W 123°53'0 0.0
2017-Aug-13 09:56N 49°10' W 123°53'0 0.0
2017-Aug-13 09:26N 49°10' W 123°53'0 0.0
2017-Aug-13 08:53N 49°10' W 123°53'0 0.0
2017-Aug-13 08:29N 49°10' W 123°53'0 0.0
2017-Aug-13 07:56N 49°10' W 123°53'0 0.2
2017-Aug-13 07:31N 49°10' W 123°53'714.4
2017-Aug-13 07:00N 49°12' W 123°43'1121.4
2017-Aug-13 06:30N 49°07' W 123°28'1121.2
2017-Aug-13 06:01N 49°01' W 123°15'5 9.0
2017-Aug-13 05:30N 49°00' W 123°08'1 2.4
2017-Aug-13 05:00N 48°60' W 123°10'1020.0
2017-Aug-13 04:30N 49°03' W 123°24'1020.6
2017-Aug-13 04:00N 49°09' W 123°37'1019.9
2017-Aug-13 03:30N 49°13' W 123°51'3 6.7
2017-Aug-13 03:00N 49°10' W 123°53'2 3.7
2017-Aug-13 02:30N 49°12' W 123°53'1019.1
2017-Aug-13 02:00N 49°11' W 123°39'1121.7
2017-Aug-13 01:30N 49°05' W 123°24'1121.7
2017-Aug-13 01:00N 49°00' W 123°09'1 2.0
2017-Aug-13 00:31N 49°00' W 123°08'3 5.1
2017-Aug-13 00:00N 49°00' W 123°12'1019.1
2017-Aug-12 23:31N 49°04' W 123°25'1019.5
2017-Aug-12 23:00N 49°09' W 123°37'1018.9
2017-Aug-12 22:30N 49°13' W 123°51'3 6.5
2017-Aug-12 22:01N 49°10' W 123°53'1 1.5
2017-Aug-12 21:30N 49°11' W 123°53'816.4
2017-Aug-12 21:00N 49°11' W 123°41'1121.5
2017-Aug-12 20:30N 49°06' W 123°26'1121.5
2017-Aug-12 20:00N 49°01' W 123°13'3 6.1
2017-Aug-12 19:30N 49°00' W 123°08'2 3.5
2017-Aug-12 19:00N 48°60' W 123°10'1020.1
2017-Aug-12 18:30N 49°03' W 123°25'1019.7
2017-Aug-12 18:00N 49°09' W 123°37'918.4
2017-Aug-12 17:30N 49°13' W 123°49'4 8.8
2017-Aug-12 17:01N 49°10' W 123°53'1 1.1
2017-Aug-12 16:30N 49°10' W 123°53'816.0
2017-Aug-12 16:00N 49°11' W 123°41'1121.5
2017-Aug-12 15:30N 49°07' W 123°27'1121.9
2017-Aug-12 15:00N 49°01' W 123°12'3 5.7
2017-Aug-12 14:30N 49°00' W 123°08'3 6.2
2017-Aug-12 14:00N 49°00' W 123°13'918.5
2017-Aug-12 13:30N 49°04' W 123°25'918.3
2017-Aug-12 13:00N 49°09' W 123°37'918.3
2017-Aug-12 12:30N 49°13' W 123°49'4 8.3
2017-Aug-12 12:00N 49°10' W 123°53'0 0.0
2017-Aug-12 11:30N 49°10' W 123°53'0 0.0
2017-Aug-12 11:00N 49°10' W 123°53'0 0.0
2017-Aug-12 10:30N 49°10' W 123°53'0 0.0
2017-Aug-12 10:00N 49°10' W 123°53'0 0.0
2017-Aug-12 09:30N 49°10' W 123°53'0 0.0
2017-Aug-12 09:00N 49°10' W 123°53'0 0.0
2017-Aug-12 08:30N 49°10' W 123°53'0 0.0
2017-Aug-12 08:00N 49°10' W 123°53'0 0.9
2017-Aug-12 07:31N 49°10' W 123°53'815.3
2017-Aug-12 07:00N 49°12' W 123°42'1121.2
2017-Aug-12 06:30N 49°06' W 123°27'1021.2
2017-Aug-12 06:00N 49°01' W 123°14'4 7.9
2017-Aug-12 05:30N 49°00' W 123°08'1 1.3
2017-Aug-12 05:00N 49°00' W 123°09'1019.7
2017-Aug-12 04:30N 49°03' W 123°23'1020.3
2017-Aug-12 04:00N 49°09' W 123°36'1019.9
2017-Aug-12 03:30N 49°13' W 123°49'4 8.2
2017-Aug-12 03:00N 49°10' W 123°53'0 0.1
2017-Aug-12 02:30N 49°10' W 123°53'714.3
2017-Aug-12 02:00N 49°12' W 123°43'1121.2
2017-Aug-12 01:30N 49°07' W 123°28'1121.4
2017-Aug-12 01:00N 49°01' W 123°15'4 9.0
2017-Aug-12 00:30N 49°00' W 123°08'1 2.2
2017-Aug-12 00:00N 49°00' W 123°10'1019.6
2017-Aug-11 23:30N 49°03' W 123°24'1020.1
2017-Aug-11 23:00N 49°09' W 123°36'1020.2
2017-Aug-11 22:30N 49°13' W 123°50'4 8.0
2017-Aug-11 22:00N 49°10' W 123°53'0 0.4
2017-Aug-11 21:30N 49°10' W 123°53'713.7
2017-Aug-11 21:00N 49°12' W 123°43'1020.6
2017-Aug-11 20:30N 49°08' W 123°30'1121.1
2017-Aug-11 20:00N 49°02' W 123°16'611.1
2017-Aug-11 19:30N 49°00' W 123°08'0 0.2
2017-Aug-11 19:01N 49°00' W 123°08'918.7
2017-Aug-11 18:31N 49°02' W 123°22'1020.9
2017-Aug-11 18:00N 49°08' W 123°35'1020.7
2017-Aug-11 17:31N 49°13' W 123°49'4 8.7
2017-Aug-11 17:00N 49°10' W 123°53'0 0.6
2017-Aug-11 16:30N 49°10' W 123°53'815.2
2017-Aug-11 16:00N 49°12' W 123°42'1021.3
2017-Aug-11 15:30N 49°07' W 123°28'1121.1
2017-Aug-11 15:00N 49°01' W 123°14'2 1.9
2017-Aug-11 14:00N 48°60' W 123°12'918.7
2017-Aug-11 13:30N 49°04' W 123°25'1019.1
2017-Aug-11 13:00N 49°09' W 123°37'1019.0
2017-Aug-11 12:30N 49°13' W 123°50'4 7.2
2017-Aug-11 11:58N 49°10' W 123°53'0 0.0
2017-Aug-11 11:28N 49°10' W 123°53'0 0.0
2017-Aug-11 10:58N 49°10' W 123°53'0 0.0
2017-Aug-11 10:28N 49°10' W 123°53'0 0.0
2017-Aug-11 09:58N 49°10' W 123°53'0 0.0
2017-Aug-11 09:28N 49°10' W 123°53'0 0.0
2017-Aug-11 08:58N 49°10' W 123°53'0 0.0
2017-Aug-11 08:28N 49°10' W 123°53'0 0.0
2017-Aug-11 07:58N 49°10' W 123°53'2 5.4
2017-Aug-11 07:31N 49°12' W 123°53'918.8
2017-Aug-11 07:00N 49°11' W 123°39'1020.4
2017-Aug-11 06:31N 49°06' W 123°25'1020.1
2017-Aug-11 06:00N 49°00' W 123°12'3 5.6
2017-Aug-11 05:30N 49°00' W 123°08'1 2.2
2017-Aug-11 05:00N 48°60' W 123°09'1020.3
2017-Aug-11 04:30N 49°03' W 123°24'1020.6
2017-Aug-11 04:00N 49°09' W 123°37'1019.5
2017-Aug-11 03:30N 49°13' W 123°51'3 4.7
2017-Aug-11 02:48N 49°10' W 123°53'1 4.2
2017-Aug-11 02:30N 49°11' W 123°53'917.2
2017-Aug-11 01:59N 49°11' W 123°40'1021.1
2017-Aug-11 01:30N 49°06' W 123°26'1121.1
2017-Aug-11 01:00N 49°00' W 123°13'3 6.0
2017-Aug-11 00:30N 49°00' W 123°08'2 3.9
2017-Aug-11 00:00N 49°00' W 123°11'1019.8
2017-Aug-10 23:30N 49°04' W 123°25'1020.3
2017-Aug-10 23:01N 49°10' W 123°37'1019.4
2017-Aug-10 22:30N 49°12' W 123°52'3 5.9
2017-Aug-10 22:00N 49°10' W 123°53'0 0.9
2017-Aug-10 21:30N 49°10' W 123°53'815.5
2017-Aug-10 21:01N 49°12' W 123°42'1020.5
2017-Aug-10 20:30N 49°07' W 123°28'1020.3
2017-Aug-10 20:00N 49°01' W 123°15'5 9.4
2017-Aug-10 19:30N 49°00' W 123°08'2 3.0
2017-Aug-10 19:00N 48°60' W 123°10'1019.6
2017-Aug-10 18:30N 49°03' W 123°24'1020.4
2017-Aug-10 18:00N 49°09' W 123°37'1019.3
2017-Aug-10 17:30N 49°13' W 123°50'4 7.2
2017-Aug-10 17:00N 49°10' W 123°53'0 0.8
2017-Aug-10 16:30N 49°10' W 123°53'815.5
2017-Aug-10 16:00N 49°12' W 123°42'1020.3
2017-Aug-10 15:30N 49°07' W 123°28'1021.1
2017-Aug-10 15:00N 49°01' W 123°15'5 9.0
2017-Aug-10 14:30N 49°00' W 123°08'3 6.6
2017-Aug-10 14:00N 49°00' W 123°13'917.9
2017-Aug-10 13:30N 49°04' W 123°25'918.4
2017-Aug-10 13:00N 49°09' W 123°37'918.8
2017-Aug-10 12:30N 49°13' W 123°50'4 8.1
2017-Aug-10 12:00N 49°10' W 123°53'0 0.0
2017-Aug-10 11:30N 49°10' W 123°53'0 0.0
2017-Aug-10 11:00N 49°10' W 123°53'0 0.0
2017-Aug-10 10:30N 49°10' W 123°53'0 0.0
2017-Aug-10 10:00N 49°10' W 123°53'0 0.0
2017-Aug-10 09:30N 49°10' W 123°53'0 0.0
2017-Aug-10 09:00N 49°10' W 123°53'0 0.0
2017-Aug-10 08:30N 49°10' W 123°53'0 0.0
2017-Aug-10 08:00N 49°10' W 123°53'4 7.4
2017-Aug-10 07:30N 49°13' W 123°51'1020.1
2017-Aug-10 07:00N 49°10' W 123°36'1020.3
2017-Aug-10 06:30N 49°05' W 123°22'1019.5
2017-Aug-10 05:59N 49°00' W 123°09'0 1.0
2017-Aug-10 05:30N 49°00' W 123°08'1 3.0
2017-Aug-10 05:00N 48°60' W 123°10'1020.6
2017-Aug-10 04:30N 49°03' W 123°25'1020.3
2017-Aug-10 04:00N 49°09' W 123°37'1019.5
2017-Aug-10 03:31N 49°13' W 123°51'3 6.4
2017-Aug-10 03:00N 49°10' W 123°53'0 0.0
2017-Aug-10 02:30N 49°10' W 123°53'713.8
2017-Aug-10 02:00N 49°12' W 123°43'1121.3
2017-Aug-10 01:29N 49°07' W 123°29'1021.2
2017-Aug-10 01:00N 49°01' W 123°16'510.5
2017-Aug-10 00:30N 49°00' W 123°08'1 1.4
2017-Aug-09 23:59N 49°00' W 123°09'1019.6
2017-Aug-09 23:30N 49°03' W 123°23'1020.8
2017-Aug-09 23:00N 49°09' W 123°36'1211.7
2017-Aug-09 22:00N 49°10' W 123°53'2 3.7
2017-Aug-09 21:25N 49°12' W 123°53'818.6
2017-Aug-09 21:00N 49°12' W 123°42'1020.7
2017-Aug-09 20:30N 49°06' W 123°28'1020.6
2017-Aug-09 20:00N 49°01' W 123°14'4 8.5
2017-Aug-09 19:30N 49°00' W 123°08'3 5.4
2017-Aug-09 19:00N 48°60' W 123°12'1020.3
2017-Aug-09 18:30N 49°04' W 123°26'1020.7
2017-Aug-09 18:00N 49°10' W 123°39'7 4.4
2017-Aug-09 16:26N 49°13' W 123°48'920.1
2017-Aug-09 16:00N 49°10' W 123°36'1020.2
2017-Aug-09 15:30N 49°05' W 123°23'1019.4
2017-Aug-09 15:00N 49°00' W 123°10'1 2.5
2017-Aug-09 14:27N 49°00' W 123°08'4 8.3
2017-Aug-09 14:00N 48°60' W 123°14'918.8
2017-Aug-09 13:30N 49°04' W 123°26'1019.4
2017-Aug-09 13:00N 49°10' W 123°38'7 1.2
2017-Aug-09 07:12N 49°13' W 123°47'420.9
2017-Aug-09 07:00N 49°12' W 123°41'1020.5
2017-Aug-09 06:31N 49°07' W 123°28'1019.8
2017-Aug-09 06:00N 49°01' W 123°15'  
Track history (hours):
 
Tides and Currents Weather Stations Pressure Air Temp Water Temp Dewpoint Dewpoint Depression Visibility Wind Speed Wind Dir Waves Ship Positions

Coastal Inspiration

Last reported at 2017-Aug-19 05:30 UTC. Time now 2017-Aug-19 05:31 UTC.
Position N 49°00' W 123°08'.

Length 160 m.

Type: Passenger vessel. MMSI: 316011408.

Date/timePositionNaut miles runAvg speedWind from/ knotsBaromVisibWave heightAir tempDewpointWater temp
2017-Aug-19 05:30N 49°00' W 123°08'1 2.1
2017-Aug-19 05:00N 48°60' W 123°09'1020.3
2017-Aug-19 04:30N 49°03' W 123°24'1121.3
2017-Aug-19 04:00N 49°10' W 123°37'1020.3
2017-Aug-19 03:30N 49°12' W 123°52'3 5.7
2017-Aug-19 03:00N 49°10' W 123°53'2 3.6
2017-Aug-19 02:30N 49°12' W 123°53'918.1
2017-Aug-19 02:00N 49°11' W 123°39'1121.2
2017-Aug-19 01:30N 49°06' W 123°25'1021.0
2017-Aug-19 01:00N 48°60' W 123°12'3 5.6
2017-Aug-19 00:30N 49°00' W 123°08'2 3.8
2017-Aug-19 00:00N 48°60' W 123°11'1020.1
2017-Aug-18 23:30N 49°04' W 123°25'1020.4
2017-Aug-18 23:00N 49°09' W 123°38'1019.5
2017-Aug-18 22:30N 49°13' W 123°52'3 5.8
2017-Aug-18 22:00N 49°10' W 123°53'2 4.8
2017-Aug-18 21:31N 49°12' W 123°53'1020.0
2017-Aug-18 21:00N 49°10' W 123°37'1021.6
2017-Aug-18 20:30N 49°05' W 123°23'1121.9
2017-Aug-18 20:01N 49°00' W 123°09'1 1.3
2017-Aug-18 19:30N 49°00' W 123°08'3 5.4
2017-Aug-18 19:00N 49°00' W 123°12'918.9
2017-Aug-18 18:30N 49°04' W 123°25'1019.0
2017-Aug-18 18:00N 49°09' W 123°37'1019.9
2017-Aug-18 17:31N 49°13' W 123°51'4 7.3
2017-Aug-18 17:00N 49°10' W 123°53'2 3.6
2017-Aug-18 16:30N 49°12' W 123°53'917.6
2017-Aug-18 16:00N 49°11' W 123°40'1020.9
2017-Aug-18 15:31N 49°06' W 123°26'1020.9
2017-Aug-18 15:01N 49°00' W 123°12'3 5.8
2017-Aug-18 14:30N 49°00' W 123°08'1413.7
2017-Aug-18 13:31N 49°05' W 123°28'1020.4
2017-Aug-18 13:00N 49°11' W 123°41'816.8
2017-Aug-18 12:30N 49°11' W 123°53'1 1.7
2017-Aug-18 11:59N 49°10' W 123°53'0 0.0
2017-Aug-18 11:29N 49°10' W 123°53'0 0.0
2017-Aug-18 10:59N 49°10' W 123°53'0 0.0
2017-Aug-18 10:29N 49°10' W 123°53'0 0.0
2017-Aug-18 09:59N 49°10' W 123°53'0 0.0
2017-Aug-18 09:29N 49°10' W 123°53'0 0.0
2017-Aug-18 08:59N 49°10' W 123°53'0 0.0
2017-Aug-18 08:29N 49°10' W 123°53'0 0.0
2017-Aug-18 07:56N 49°10' W 123°53'2 5.4
2017-Aug-18 07:30N 49°12' W 123°53'1019.0
2017-Aug-18 07:00N 49°11' W 123°38'1121.6
2017-Aug-18 06:30N 49°05' W 123°24'1121.7
2017-Aug-18 06:00N 49°00' W 123°10'1 2.6
2017-Aug-18 05:31N 49°00' W 123°08'611.0
2017-Aug-18 05:00N 49°01' W 123°16'1020.0
2017-Aug-18 04:30N 49°06' W 123°29'1020.4
2017-Aug-18 04:00N 49°11' W 123°42'714.8
2017-Aug-18 03:30N 49°10' W 123°53'0 0.2
2017-Aug-18 03:00N 49°10' W 123°53'4 8.3
2017-Aug-18 02:30N 49°13' W 123°50'1020.2
2017-Aug-18 01:59N 49°09' W 123°35'1021.1
2017-Aug-18 01:30N 49°04' W 123°21'1019.2
2017-Aug-18 01:00N 49°00' W 123°08'0 0.1
2017-Aug-18 00:25N 49°00' W 123°08'1 2.6
2017-Aug-18 00:00N 49°00' W 123°09'1020.1
2017-Aug-17 23:31N 49°03' W 123°24'1020.2
2017-Aug-17 23:01N 49°09' W 123°36'1019.8
2017-Aug-17 22:30N 49°13' W 123°50'4 7.8
2017-Aug-17 22:00N 49°10' W 123°53'1 1.2
2017-Aug-17 21:30N 49°10' W 123°53'816.1
2017-Aug-17 21:00N 49°12' W 123°41'1020.6
2017-Aug-17 20:30N 49°07' W 123°27'1121.2
2017-Aug-17 20:00N 49°01' W 123°14'4 7.9
2017-Aug-17 19:30N 49°00' W 123°08'2 3.4
2017-Aug-17 19:00N 49°00' W 123°10'1019.6
2017-Aug-17 18:31N 49°04' W 123°24'1020.3
2017-Aug-17 18:00N 49°10' W 123°37'1019.7
2017-Aug-17 17:30N 49°12' W 123°52'3 5.9
2017-Aug-17 17:00N 49°10' W 123°53'1 2.3
2017-Aug-17 16:30N 49°11' W 123°53'817.1
2017-Aug-17 16:00N 49°12' W 123°40'1020.0
2017-Aug-17 15:30N 49°07' W 123°27'1020.3
2017-Aug-17 15:00N 49°01' W 123°14'4 8.6
2017-Aug-17 14:30N 49°00' W 123°08'1 2.4
2017-Aug-17 14:00N 48°60' W 123°09'1019.9
2017-Aug-17 13:30N 49°03' W 123°24'1020.7
2017-Aug-17 13:00N 49°09' W 123°36'1020.6
2017-Aug-17 12:30N 49°13' W 123°51'4 7.3
2017-Aug-17 12:00N 49°10' W 123°53'0 0.0
2017-Aug-17 11:30N 49°10' W 123°53'0 0.0
2017-Aug-17 10:57N 49°10' W 123°53'0 0.0
2017-Aug-17 10:30N 49°10' W 123°53'0 0.0
2017-Aug-17 10:00N 49°10' W 123°53'0 0.0
2017-Aug-17 09:24N 49°10' W 123°53'0 0.0
2017-Aug-17 08:57N 49°10' W 123°53'0 0.0
2017-Aug-17 08:30N 49°10' W 123°53'0 0.0
2017-Aug-17 08:00N 49°10' W 123°53'0 0.2
2017-Aug-17 07:30N 49°10' W 123°53'815.2
2017-Aug-17 07:00N 49°13' W 123°42'1020.9
2017-Aug-17 06:30N 49°07' W 123°29'1121.6
2017-Aug-17 06:00N 49°02' W 123°15'5 9.3
2017-Aug-17 05:31N 49°00' W 123°08'1 2.9
2017-Aug-17 05:00N 49°00' W 123°10'1019.6
2017-Aug-17 04:30N 49°03' W 123°24'1020.4
2017-Aug-17 04:01N 49°10' W 123°36'1020.0
2017-Aug-17 03:31N 49°13' W 123°51'4 7.5
2017-Aug-17 03:00N 49°10' W 123°53'0 0.9
2017-Aug-17 02:30N 49°10' W 123°53'816.3
2017-Aug-17 02:00N 49°11' W 123°41'1021.1
2017-Aug-17 01:30N 49°07' W 123°27'1121.0
2017-Aug-17 01:00N 49°01' W 123°13'3 6.9
2017-Aug-17 00:30N 49°00' W 123°08'2 4.8
2017-Aug-17 00:00N 49°00' W 123°12'1019.7
2017-Aug-16 23:30N 49°04' W 123°25'1020.2
2017-Aug-16 23:00N 49°10' W 123°38'1019.2
2017-Aug-16 22:30N 49°12' W 123°52'3 5.3
2017-Aug-16 22:00N 49°10' W 123°53'1 2.2
2017-Aug-16 21:30N 49°11' W 123°53'816.9
2017-Aug-16 21:01N 49°11' W 123°41'1120.9
2017-Aug-16 20:30N 49°07' W 123°26'1021.2
2017-Aug-16 20:00N 49°01' W 123°13'3 6.6
2017-Aug-16 19:30N 49°00' W 123°08'2 3.9
2017-Aug-16 19:00N 49°00' W 123°11'1019.1
2017-Aug-16 18:30N 49°04' W 123°24'1019.7
2017-Aug-16 18:00N 49°09' W 123°36'1019.6
2017-Aug-16 17:30N 49°13' W 123°50'4 7.5
2017-Aug-16 17:00N 49°10' W 123°53'2 3.5
2017-Aug-16 16:31N 49°12' W 123°54'1018.6
2017-Aug-16 16:00N 49°11' W 123°39'1020.9
2017-Aug-16 15:30N 49°06' W 123°25'1121.1
2017-Aug-16 15:00N 49°00' W 123°11'2 4.6
2017-Aug-16 14:30N 49°00' W 123°08'3 7.0
2017-Aug-16 14:00N 49°00' W 123°13'918.6
2017-Aug-16 13:31N 49°04' W 123°26'918.9
2017-Aug-16 13:01N 49°10' W 123°38'918.4
2017-Aug-16 12:30N 49°13' W 123°51'4 5.8
2017-Aug-16 11:52N 49°10' W 123°53'0 0.0
2017-Aug-16 11:28N 49°10' W 123°53'0 0.0
2017-Aug-16 10:58N 49°10' W 123°53'0 0.0
2017-Aug-16 08:49N 49°10' W 123°53'0 0.0
2017-Aug-16 08:28N 49°10' W 123°53'0 0.0
2017-Aug-16 07:55N 49°10' W 123°53'3 6.5
2017-Aug-16 07:30N 49°12' W 123°53'918.6
2017-Aug-16 07:00N 49°10' W 123°39'1021.0
2017-Aug-16 06:30N 49°06' W 123°24'1020.8
2017-Aug-16 06:00N 49°00' W 123°11'2 3.6
2017-Aug-16 05:30N 49°00' W 123°08'611.0
2017-Aug-16 05:00N 49°01' W 123°16'1020.5
2017-Aug-16 04:30N 49°06' W 123°30'1021.0
2017-Aug-16 04:01N 49°12' W 123°43'713.9
2017-Aug-16 03:31N 49°10' W 123°53'0 0.1
2017-Aug-16 03:00N 49°10' W 123°53'612.3
2017-Aug-16 02:30N 49°13' W 123°46'1020.7
2017-Aug-16 02:01N 49°08' W 123°32'1020.6
2017-Aug-16 01:30N 49°03' W 123°18'714.1
2017-Aug-16 01:00N 49°00' W 123°08'0 0.0
2017-Aug-16 00:30N 49°00' W 123°08'3 5.9
2017-Aug-16 00:00N 48°60' W 123°12'1121.1
2017-Aug-15 23:30N 49°05' W 123°27'1121.2
2017-Aug-15 23:00N 49°11' W 123°40'917.6
2017-Aug-15 22:30N 49°11' W 123°53'1 1.9
2017-Aug-15 22:00N 49°10' W 123°53'3 5.1
2017-Aug-15 21:31N 49°12' W 123°53'1019.0
2017-Aug-15 21:01N 49°11' W 123°38'1020.5
2017-Aug-15 20:31N 49°06' W 123°25'1020.5
2017-Aug-15 20:01N 49°00' W 123°11'2 4.4
2017-Aug-15 19:29N 49°00' W 123°08'3 6.0
2017-Aug-15 19:00N 49°00' W 123°12'919.0
2017-Aug-15 18:30N 49°04' W 123°25'1019.3
2017-Aug-15 18:00N 49°10' W 123°38'919.0
2017-Aug-15 17:30N 49°13' W 123°51'3 6.3
2017-Aug-15 17:01N 49°10' W 123°53'2 3.6
2017-Aug-15 16:30N 49°12' W 123°53'918.1
2017-Aug-15 16:00N 49°11' W 123°39'1020.6
2017-Aug-15 15:30N 49°06' W 123°26'1020.7
2017-Aug-15 15:00N 49°01' W 123°12'3 5.4
2017-Aug-15 14:30N 49°00' W 123°08'2 4.0
2017-Aug-15 14:00N 48°59' W 123°11'1020.0
2017-Aug-15 13:30N 49°04' W 123°25'1020.6
2017-Aug-15 13:00N 49°10' W 123°37'1020.4
2017-Aug-15 12:30N 49°12' W 123°52'3 5.5
2017-Aug-15 11:59N 49°10' W 123°53'0 0.0
2017-Aug-15 11:29N 49°10' W 123°53'0 0.0
2017-Aug-15 11:00N 49°10' W 123°53'0 0.0
2017-Aug-15 10:29N 49°10' W 123°53'0 0.0
2017-Aug-15 09:59N 49°10' W 123°53'0 0.0
2017-Aug-15 09:29N 49°10' W 123°53'0 0.0
2017-Aug-15 08:47N 49°10' W 123°53'0 0.0
2017-Aug-15 08:30N 49°10' W 123°53'0 0.0
2017-Aug-15 07:59N 49°10' W 123°53'2 3.3
2017-Aug-15 07:30N 49°11' W 123°53'917.7
2017-Aug-15 07:00N 49°11' W 123°40'1021.0
2017-Aug-15 06:30N 49°07' W 123°25'1020.3
2017-Aug-15 06:00N 49°01' W 123°13'3 6.2
2017-Aug-15 05:30N 49°00' W 123°08'3 5.7
2017-Aug-15 05:00N 49°00' W 123°12'1020.1
2017-Aug-15 04:31N 49°04' W 123°26'1020.5
2017-Aug-15 04:00N 49°10' W 123°39'918.6
2017-Aug-15 03:31N 49°12' W 123°53'2 4.1
2017-Aug-15 03:00N 49°10' W 123°53'1 2.5
2017-Aug-15 02:30N 49°11' W 123°53'816.6
2017-Aug-15 02:00N 49°11' W 123°41'1020.7
2017-Aug-15 01:30N 49°06' W 123°27'1020.6
2017-Aug-15 01:00N 49°01' W 123°13'4 7.0
2017-Aug-15 00:30N 49°00' W 123°08'1 2.1
2017-Aug-15 00:00N 49°00' W 123°09'1020.6
2017-Aug-14 23:30N 49°03' W 123°24'1121.4
2017-Aug-14 22:59N 49°10' W 123°38'1019.9
2017-Aug-14 22:30N 49°12' W 123°52'3 5.5
2017-Aug-14 22:00N 49°10' W 123°53'0 0.9
2017-Aug-14 21:30N 49°10' W 123°53'815.4
2017-Aug-14 21:00N 49°12' W 123°42'1020.4
2017-Aug-14 20:30N 49°07' W 123°28'1020.5
2017-Aug-14 20:00N 49°01' W 123°15'5 9.4
2017-Aug-14 19:30N 49°00' W 123°08'1 1.1
2017-Aug-14 19:00N 49°00' W 123°09'1020.0
2017-Aug-14 18:30N 49°02' W 123°24'1020.4
2017-Aug-14 18:00N 49°09' W 123°35'1020.0
2017-Aug-14 17:30N 49°13' W 123°49'4 8.4
2017-Aug-14 17:00N 49°10' W 123°53'1 1.9
2017-Aug-14 16:30N 49°11' W 123°53'816.4
2017-Aug-14 16:00N 49°11' W 123°41'1020.8
2017-Aug-14 15:31N 49°06' W 123°27'1020.7
2017-Aug-14 15:00N 49°01' W 123°14'4 7.7
2017-Aug-14 14:30N 49°00' W 123°08'1 2.7
2017-Aug-14 14:00N 48°59' W 123°09'1019.9
2017-Aug-14 13:30N 49°03' W 123°23'1121.0
2017-Aug-14 13:00N 49°09' W 123°36'1021.0
2017-Aug-14 12:30N 49°13' W 123°51'4 7.1
2017-Aug-14 11:58N 49°10' W 123°53'0 0.0
2017-Aug-14 11:25N 49°10' W 123°53'0 0.0
2017-Aug-14 10:55N 49°10' W 123°53'0 0.0
2017-Aug-14 10:28N 49°10' W 123°53'0 0.0
2017-Aug-14 09:55N 49°10' W 123°53'0 0.0
2017-Aug-14 09:28N 49°10' W 123°53'0 0.0
2017-Aug-14 08:58N 49°10' W 123°53'0 0.0
2017-Aug-14 08:25N 49°10' W 123°53'0 0.0
2017-Aug-14 07:55N 49°10' W 123°53'2 5.7
2017-Aug-14 07:30N 49°12' W 123°53'918.9
2017-Aug-14 07:00N 49°11' W 123°39'1020.8
2017-Aug-14 06:30N 49°06' W 123°25'1020.3
2017-Aug-14 06:00N 49°01' W 123°12'2 4.8
2017-Aug-14 05:30N 49°00' W 123°08'5 9.8
2017-Aug-14 05:00N 49°00' W 123°15'1020.8
2017-Aug-14 04:30N 49°06' W 123°29'1020.5
2017-Aug-14 04:00N 49°11' W 123°42'815.3
2017-Aug-14 03:31N 49°10' W 123°53'0 0.3
2017-Aug-14 03:01N 49°10' W 123°53'4 7.8
2017-Aug-14 02:30N 49°13' W 123°50'1020.6
2017-Aug-14 02:01N 49°10' W 123°35'1121.7
2017-Aug-14 01:30N 49°04' W 123°21'918.4
2017-Aug-14 01:00N 49°00' W 123°08'0 0.1
2017-Aug-14 00:30N 49°00' W 123°08'2 4.6
2017-Aug-14 00:01N 49°00' W 123°11'1020.0
2017-Aug-13 23:30N 49°04' W 123°25'1020.5
2017-Aug-13 23:00N 49°10' W 123°38'1019.7
2017-Aug-13 22:30N 49°12' W 123°53'2 4.8
2017-Aug-13 22:00N 49°10' W 123°53'1 1.6
2017-Aug-13 21:30N 49°11' W 123°53'815.9
2017-Aug-13 21:00N 49°11' W 123°41'1020.2
2017-Aug-13 20:31N 49°07' W 123°28'1020.0
2017-Aug-13 20:00N 49°01' W 123°15'5 9.5
2017-Aug-13 19:30N 49°00' W 123°08'0 0.2
2017-Aug-13 19:00N 49°00' W 123°08'918.1
2017-Aug-13 18:30N 49°02' W 123°22'1020.8
2017-Aug-13 18:00N 49°08' W 123°34'1020.7
2017-Aug-13 17:31N 49°13' W 123°48'5 9.6
2017-Aug-13 17:00N 49°10' W 123°53'0 0.9
2017-Aug-13 16:30N 49°10' W 123°53'815.5
2017-Aug-13 16:00N 49°11' W 123°42'1121.2
2017-Aug-13 15:30N 49°07' W 123°27'1121.3
2017-Aug-13 15:00N 49°01' W 123°14'4 7.5
2017-Aug-13 14:30N 49°00' W 123°08'3 6.6
2017-Aug-13 14:00N 49°00' W 123°13'918.5
2017-Aug-13 13:30N 49°04' W 123°26'918.2
2017-Aug-13 13:00N 49°10' W 123°37'918.7
2017-Aug-13 12:31N 49°13' W 123°50'4 7.1
2017-Aug-13 11:59N 49°10' W 123°53'0 0.0
2017-Aug-13 11:29N 49°10' W 123°53'0 0.0
2017-Aug-13 10:59N 49°10' W 123°53'0 0.0
2017-Aug-13 10:26N 49°10' W 123°53'0 0.0
2017-Aug-13 09:56N 49°10' W 123°53'0 0.0
2017-Aug-13 09:26N 49°10' W 123°53'0 0.0
2017-Aug-13 08:53N 49°10' W 123°53'0 0.0
2017-Aug-13 08:29N 49°10' W 123°53'0 0.0
2017-Aug-13 07:56N 49°10' W 123°53'0 0.2
2017-Aug-13 07:31N 49°10' W 123°53'714.4
2017-Aug-13 07:00N 49°12' W 123°43'1121.4
2017-Aug-13 06:30N 49°07' W 123°28'1121.2
2017-Aug-13 06:01N 49°01' W 123°15'5 9.0
2017-Aug-13 05:30N 49°00' W 123°08'1 2.4
2017-Aug-13 05:00N 48°60' W 123°10'1020.0
2017-Aug-13 04:30N 49°03' W 123°24'1020.6
2017-Aug-13 04:00N 49°09' W 123°37'1019.9
2017-Aug-13 03:30N 49°13' W 123°51'3 6.7
2017-Aug-13 03:00N 49°10' W 123°53'2 3.7
2017-Aug-13 02:30N 49°12' W 123°53'1019.1
2017-Aug-13 02:00N 49°11' W 123°39'1121.7
2017-Aug-13 01:30N 49°05' W 123°24'1121.7
2017-Aug-13 01:00N 49°00' W 123°09'1 2.0
2017-Aug-13 00:31N 49°00' W 123°08'3 5.1
2017-Aug-13 00:00N 49°00' W 123°12'1019.1
2017-Aug-12 23:31N 49°04' W 123°25'1019.5
2017-Aug-12 23:00N 49°09' W 123°37'1018.9
2017-Aug-12 22:30N 49°13' W 123°51'3 6.5
2017-Aug-12 22:01N 49°10' W 123°53'1 1.5
2017-Aug-12 21:30N 49°11' W 123°53'816.4
2017-Aug-12 21:00N 49°11' W 123°41'1121.5
2017-Aug-12 20:30N 49°06' W 123°26'1121.5
2017-Aug-12 20:00N 49°01' W 123°13'3 6.1
2017-Aug-12 19:30N 49°00' W 123°08'2 3.5
2017-Aug-12 19:00N 48°60' W 123°10'1020.1
2017-Aug-12 18:30N 49°03' W 123°25'1019.7
2017-Aug-12 18:00N 49°09' W 123°37'918.4
2017-Aug-12 17:30N 49°13' W 123°49'4 8.8
2017-Aug-12 17:01N 49°10' W 123°53'1 1.1
2017-Aug-12 16:30N 49°10' W 123°53'816.0
2017-Aug-12 16:00N 49°11' W 123°41'1121.5
2017-Aug-12 15:30N 49°07' W 123°27'1121.9
2017-Aug-12 15:00N 49°01' W 123°12'3 5.7
2017-Aug-12 14:30N 49°00' W 123°08'3 6.2
2017-Aug-12 14:00N 49°00' W 123°13'918.5
2017-Aug-12 13:30N 49°04' W 123°25'918.3
2017-Aug-12 13:00N 49°09' W 123°37'918.3
2017-Aug-12 12:30N 49°13' W 123°49'4 8.3
2017-Aug-12 12:00N 49°10' W 123°53'0 0.0
2017-Aug-12 11:30N 49°10' W 123°53'0 0.0
2017-Aug-12 11:00N 49°10' W 123°53'0 0.0
2017-Aug-12 10:30N 49°10' W 123°53'0 0.0
2017-Aug-12 10:00N 49°10' W 123°53'0 0.0
2017-Aug-12 09:30N 49°10' W 123°53'0 0.0
2017-Aug-12 09:00N 49°10' W 123°53'0 0.0
2017-Aug-12 08:30N 49°10' W 123°53'0 0.0
2017-Aug-12 08:00N 49°10' W 123°53'0 0.9
2017-Aug-12 07:31N 49°10' W 123°53'815.3
2017-Aug-12 07:00N 49°12' W 123°42'1121.2
2017-Aug-12 06:30N 49°06' W 123°27'1021.2
2017-Aug-12 06:00N 49°01' W 123°14'4 7.9
2017-Aug-12 05:30N 49°00' W 123°08'1 1.3
2017-Aug-12 05:00N 49°00' W 123°09'1019.7
2017-Aug-12 04:30N 49°03' W 123°23'1020.3
2017-Aug-12 04:00N 49°09' W 123°36'1019.9
2017-Aug-12 03:30N 49°13' W 123°49'4 8.2
2017-Aug-12 03:00N 49°10' W 123°53'0 0.1
2017-Aug-12 02:30N 49°10' W 123°53'714.3
2017-Aug-12 02:00N 49°12' W 123°43'1121.2
2017-Aug-12 01:30N 49°07' W 123°28'1121.4
2017-Aug-12 01:00N 49°01' W 123°15'4 9.0
2017-Aug-12 00:30N 49°00' W 123°08'1 2.2
2017-Aug-12 00:00N 49°00' W 123°10'1019.6
2017-Aug-11 23:30N 49°03' W 123°24'1020.1
2017-Aug-11 23:00N 49°09' W 123°36'1020.2
2017-Aug-11 22:30N 49°13' W 123°50'4 8.0
2017-Aug-11 22:00N 49°10' W 123°53'0 0.4
2017-Aug-11 21:30N 49°10' W 123°53'713.7
2017-Aug-11 21:00N 49°12' W 123°43'1020.6
2017-Aug-11 20:30N 49°08' W 123°30'1121.1
2017-Aug-11 20:00N 49°02' W 123°16'611.1
2017-Aug-11 19:30N 49°00' W 123°08'0 0.2
2017-Aug-11 19:01N 49°00' W 123°08'918.7
2017-Aug-11 18:31N 49°02' W 123°22'1020.9
2017-Aug-11 18:00N 49°08' W 123°35'1020.7
2017-Aug-11 17:31N 49°13' W 123°49'4 8.7
2017-Aug-11 17:00N 49°10' W 123°53'0 0.6
2017-Aug-11 16:30N 49°10' W 123°53'815.2
2017-Aug-11 16:00N 49°12' W 123°42'1021.3
2017-Aug-11 15:30N 49°07' W 123°28'1121.1
2017-Aug-11 15:00N 49°01' W 123°14'2 1.9
2017-Aug-11 14:00N 48°60' W 123°12'918.7
2017-Aug-11 13:30N 49°04' W 123°25'1019.1
2017-Aug-11 13:00N 49°09' W 123°37'1019.0
2017-Aug-11 12:30N 49°13' W 123°50'4 7.2
2017-Aug-11 11:58N 49°10' W 123°53'0 0.0
2017-Aug-11 11:28N 49°10' W 123°53'0 0.0
2017-Aug-11 10:58N 49°10' W 123°53'0 0.0
2017-Aug-11 10:28N 49°10' W 123°53'0 0.0
2017-Aug-11 09:58N 49°10' W 123°53'0 0.0
2017-Aug-11 09:28N 49°10' W 123°53'0 0.0
2017-Aug-11 08:58N 49°10' W 123°53'0 0.0
2017-Aug-11 08:28N 49°10' W 123°53'0 0.0
2017-Aug-11 07:58N 49°10' W 123°53'2 5.4
2017-Aug-11 07:31N 49°12' W 123°53'918.8
2017-Aug-11 07:00N 49°11' W 123°39'1020.4
2017-Aug-11 06:31N 49°06' W 123°25'1020.1
2017-Aug-11 06:00N 49°00' W 123°12'3 5.6
2017-Aug-11 05:30N 49°00' W 123°08'1 2.2
2017-Aug-11 05:00N 48°60' W 123°09'1020.3
2017-Aug-11 04:30N 49°03' W 123°24'1020.6
2017-Aug-11 04:00N 49°09' W 123°37'1019.5
2017-Aug-11 03:30N 49°13' W 123°51'3 4.7
2017-Aug-11 02:48N 49°10' W 123°53'1 4.2
2017-Aug-11 02:30N 49°11' W 123°53'917.2
2017-Aug-11 01:59N 49°11' W 123°40'1021.1
2017-Aug-11 01:30N 49°06' W 123°26'1121.1
2017-Aug-11 01:00N 49°00' W 123°13'3 6.0
2017-Aug-11 00:30N 49°00' W 123°08'2 3.9
2017-Aug-11 00:00N 49°00' W 123°11'1019.8
2017-Aug-10 23:30N 49°04' W 123°25'1020.3
2017-Aug-10 23:01N 49°10' W 123°37'1019.4
2017-Aug-10 22:30N 49°12' W 123°52'3 5.9
2017-Aug-10 22:00N 49°10' W 123°53'0 0.9
2017-Aug-10 21:30N 49°10' W 123°53'815.5
2017-Aug-10 21:01N 49°12' W 123°42'1020.5
2017-Aug-10 20:30N 49°07' W 123°28'1020.3
2017-Aug-10 20:00N 49°01' W 123°15'5 9.4
2017-Aug-10 19:30N 49°00' W 123°08'2 3.0
2017-Aug-10 19:00N 48°60' W 123°10'1019.6
2017-Aug-10 18:30N 49°03' W 123°24'1020.4
2017-Aug-10 18:00N 49°09' W 123°37'1019.3
2017-Aug-10 17:30N 49°13' W 123°50'4 7.2
2017-Aug-10 17:00N 49°10' W 123°53'0 0.8
2017-Aug-10 16:30N 49°10' W 123°53'815.5
2017-Aug-10 16:00N 49°12' W 123°42'1020.3
2017-Aug-10 15:30N 49°07' W 123°28'1021.1
2017-Aug-10 15:00N 49°01' W 123°15'5 9.0
2017-Aug-10 14:30N 49°00' W 123°08'3 6.6
2017-Aug-10 14:00N 49°00' W 123°13'917.9
2017-Aug-10 13:30N 49°04' W 123°25'918.4
2017-Aug-10 13:00N 49°09' W 123°37'918.8
2017-Aug-10 12:30N 49°13' W 123°50'4 8.1
2017-Aug-10 12:00N 49°10' W 123°53'0 0.0
2017-Aug-10 11:30N 49°10' W 123°53'0 0.0
2017-Aug-10 11:00N 49°10' W 123°53'0 0.0
2017-Aug-10 10:30N 49°10' W 123°53'0 0.0
2017-Aug-10 10:00N 49°10' W 123°53'0 0.0
2017-Aug-10 09:30N 49°10' W 123°53'0 0.0
2017-Aug-10 09:00N 49°10' W 123°53'0 0.0
2017-Aug-10 08:30N 49°10' W 123°53'0 0.0
2017-Aug-10 08:00N 49°10' W 123°53'4 7.4
2017-Aug-10 07:30N 49°13' W 123°51'1020.1
2017-Aug-10 07:00N 49°10' W 123°36'1020.3
2017-Aug-10 06:30N 49°05' W 123°22'1019.5
2017-Aug-10 05:59N 49°00' W 123°09'0 1.0
2017-Aug-10 05:30N 49°00' W 123°08'1 3.0
2017-Aug-10 05:00N 48°60' W 123°10'1020.6
2017-Aug-10 04:30N 49°03' W 123°25'1020.3
2017-Aug-10 04:00N 49°09' W 123°37'1019.5
2017-Aug-10 03:31N 49°13' W 123°51'3 6.4
2017-Aug-10 03:00N 49°10' W 123°53'0 0.0
2017-Aug-10 02:30N 49°10' W 123°53'713.8
2017-Aug-10 02:00N 49°12' W 123°43'1121.3
2017-Aug-10 01:29N 49°07' W 123°29'1021.2
2017-Aug-10 01:00N 49°01' W 123°16'510.5
2017-Aug-10 00:30N 49°00' W 123°08'1 1.4
2017-Aug-09 23:59N 49°00' W 123°09'1019.6
2017-Aug-09 23:30N 49°03' W 123°23'1020.8
2017-Aug-09 23:00N 49°09' W 123°36'1211.7
2017-Aug-09 22:00N 49°10' W 123°53'2 3.7
2017-Aug-09 21:25N 49°12' W 123°53'818.6
2017-Aug-09 21:00N 49°12' W 123°42'1020.7
2017-Aug-09 20:30N 49°06' W 123°28'1020.6
2017-Aug-09 20:00N 49°01' W 123°14'4 8.5
2017-Aug-09 19:30N 49°00' W 123°08'3 5.4
2017-Aug-09 19:00N 48°60' W 123°12'1020.3
2017-Aug-09 18:30N 49°04' W 123°26'1020.7
2017-Aug-09 18:00N 49°10' W 123°39'7 4.4
2017-Aug-09 16:26N 49°13' W 123°48'920.1
2017-Aug-09 16:00N 49°10' W 123°36'1020.2
2017-Aug-09 15:30N 49°05' W 123°23'1019.4
2017-Aug-09 15:00N 49°00' W 123°10'1 2.5
2017-Aug-09 14:27N 49°00' W 123°08'4 8.3
2017-Aug-09 14:00N 48°60' W 123°14'918.8
2017-Aug-09 13:30N 49°04' W 123°26'1019.4
2017-Aug-09 13:00N 49°10' W 123°38'7 1.2
2017-Aug-09 07:12N 49°13' W 123°47'420.9
2017-Aug-09 07:00N 49°12' W 123°41'1020.5
2017-Aug-09 06:31N 49°07' W 123°28'1019.8
2017-Aug-09 06:00N 49°01' W 123°15'  

Dump ship's entire track history